Time;durP1;ratioP1;P1;durP2;ratioP2;P2;SDS_P1;SDS_P2;PMS_P1;PMS_P2;Temp;Humidity;BMP_temperature;BMP_pressure;BME280_temperature;BME280_humidity;BME280_pressure;Samples;Min_cycle;Max_cycle;Signal;HPM_P1;HPM_P2
2021/03/18 00:01:39;;;;;;;18.02;4.92;;;;;;;26.26;28.99;158054.25;1681799;85;21212;-78
2021/03/18 00:04:13;;;;;;;16.85;5.12;;;;;;;25.97;29.12;157977.19;1662712;85;21723;-78
2021/03/18 00:06:46;;;;;;;11.55;4.65;;;;;;;26.35;28.85;158078.16;1704846;83;21324;-78
2021/03/18 00:09:20;;;;;;;11.88;4.53;;;;;;;26.40;28.78;158092.77;1727987;83;21366;-78
2021/03/18 00:11:53;;;;;;;11.68;5.00;;;;;;;26.31;28.83;158068.86;1742829;81;21305;-79
2021/03/18 00:14:25;;;;;;;13.72;4.85;;;;;;;25.87;29.16;157950.63;1727406;81;21300;-78
2021/03/18 00:16:58;;;;;;;12.45;4.78;;;;;;;25.74;29.29;157917.41;1693050;85;21200;-78
2021/03/18 00:19:30;;;;;;;12.40;5.15;;;;;;;25.80;29.23;157933.36;1658936;86;21184;-78
2021/03/18 00:22:02;;;;;;;11.45;5.08;;;;;;;25.79;29.22;157929.41;1749288;81;21860;-79
2021/03/18 00:24:34;;;;;;;13.58;5.22;;;;;;;25.79;29.17;157930.70;1688253;84;21203;-78
2021/03/18 00:27:07;;;;;;;9.15;4.20;;;;;;;25.70;29.26;157905.41;1729382;81;21309;-79
2021/03/18 00:29:40;;;;;;;9.58;4.67;;;;;;;25.64;29.33;157890.80;1663963;84;21184;-79
2021/03/18 00:32:12;;;;;;;11.38;4.85;;;;;;;25.66;29.33;157896.13;1702365;83;21327;-78
2021/03/18 00:34:45;;;;;;;13.85;4.55;;;;;;;25.69;29.25;157904.09;1671147;85;21193;-79
2021/03/18 00:37:17;;;;;;;14.68;4.28;;;;;;;25.64;29.32;157889.50;1720222;83;21825;-78
2021/03/18 00:39:50;;;;;;;7.80;3.77;;;;;;;25.63;29.26;157888.14;1729393;81;21234;-78
2021/03/18 00:42:22;;;;;;;10.23;4.20;;;;;;;25.58;29.27;157873.53;1729799;83;21356;-78
2021/03/18 00:44:55;;;;;;;14.07;4.17;;;;;;;25.64;29.18;157889.50;1727794;81;21206;-79
2021/03/18 00:47:28;;;;;;;10.72;4.40;;;;;;;25.58;29.25;157874.89;1728516;83;21381;-78
2021/03/18 00:50:00;;;;;;;11.78;4.70;;;;;;;25.51;29.34;157854.97;1729802;83;21349;-79
2021/03/18 00:52:33;;;;;;;12.82;4.05;;;;;;;25.50;29.32;157852.31;1740266;81;21151;-76
2021/03/18 00:55:07;;;;;;;8.80;4.37;;;;;;;25.54;29.32;157862.94;1736647;81;21209;-77
2021/03/18 00:57:39;;;;;;;11.50;5.05;;;;;;;25.57;29.26;157870.94;1756572;81;21311;-77
2021/03/18 01:00:15;;;;;;;21.75;5.40;;;;;;;25.59;29.24;157876.19;1741257;82;21295;-77
2021/03/18 01:02:50;;;;;;;17.80;5.60;;;;;;;25.59;29.20;157876.19;1746728;82;21796;-76
2021/03/18 01:05:35;;;;;;;12.23;4.97;;;;;;;25.49;29.20;157849.64;1719831;82;21743;-77
2021/03/18 01:08:10;;;;;;;14.58;5.62;;;;;;;25.46;29.21;157840.38;1744005;81;21871;-76
2021/03/18 01:10:47;;;;;;;13.32;6.03;;;;;;;25.35;29.28;157812.47;1731970;83;21717;-77
2021/03/18 01:13:20;;;;;;;16.60;5.78;;;;;;;25.34;29.38;157809.86;1738125;82;21165;-77
2021/03/18 01:16:00;;;;;;;11.88;5.80;;;;;;;25.36;29.34;157813.81;1733569;81;21800;-76
2021/03/18 01:18:51;;;;;;;10.18;5.22;;;;;;;25.31;29.29;157801.87;1748342;82;21299;-77
2021/03/18 01:21:28;;;;;;;12.63;5.28;;;;;;;25.27;29.36;157791.25;1748071;82;21343;-77
2021/03/18 01:24:01;;;;;;;16.80;5.65;;;;;;;25.14;29.46;157756.73;1746609;81;21245;-76
2021/03/18 01:26:33;;;;;;;17.65;5.53;;;;;;;25.23;29.38;157780.61;1732109;83;21698;-76
2021/03/18 01:29:06;;;;;;;15.90;5.08;;;;;;;25.23;29.35;157779.30;1735438;82;21161;-77
2021/03/18 01:31:38;;;;;;;13.55;6.10;;;;;;;25.21;29.37;157773.98;1748335;82;21664;-76
2021/03/18 01:34:11;;;;;;;14.23;5.62;;;;;;;25.14;29.36;157756.73;1748402;82;21830;-77
2021/03/18 01:36:43;;;;;;;11.43;5.15;;;;;;;25.07;29.40;157738.11;1746261;80;21328;-76
2021/03/18 01:39:15;;;;;;;16.37;5.45;;;;;;;25.04;29.41;157728.84;1748431;81;21318;-76
2021/03/18 01:41:48;;;;;;;14.25;4.87;;;;;;;24.95;29.44;157704.91;1768114;81;21815;-76
2021/03/18 01:44:20;;;;;;;15.90;5.70;;;;;;;24.83;29.59;157673.06;1755216;81;21169;-76
2021/03/18 01:46:52;;;;;;;12.40;5.10;;;;;;;24.75;29.70;157653.20;1741225;82;21700;-76
2021/03/18 01:49:25;;;;;;;13.68;4.70;;;;;;;24.85;29.72;157678.38;1732766;82;21186;-76
2021/03/18 01:51:57;;;;;;;18.45;5.33;;;;;;;24.92;29.65;157696.98;1758952;81;21317;-76
2021/03/18 01:54:30;;;;;;;18.77;5.42;;;;;;;24.85;29.73;157678.38;1754388;81;21730;-76
2021/03/18 01:57:02;;;;;;;12.45;5.15;;;;;;;24.85;29.72;157679.72;1731900;83;21198;-76
2021/03/18 01:59:35;;;;;;;11.48;5.15;;;;;;;24.82;29.79;157671.75;1727413;82;21249;-76
2021/03/18 02:02:07;;;;;;;10.78;4.90;;;;;;;24.88;29.78;157687.66;1734750;81;21176;-76
2021/03/18 02:04:40;;;;;;;9.18;5.40;;;;;;;24.92;29.71;157696.98;1734739;83;21237;-76
2021/03/18 02:07:13;;;;;;;9.20;5.08;;;;;;;24.95;29.67;157706.27;1741154;81;21313;-76
2021/03/18 02:09:45;;;;;;;12.45;4.72;;;;;;;24.96;29.64;157708.92;1728866;83;21329;-76
2021/03/18 02:12:18;;;;;;;14.18;5.25;;;;;;;24.94;29.64;157702.30;1734905;81;21170;-76
2021/03/18 02:14:52;;;;;;;10.55;4.83;;;;;;;24.95;29.64;157704.91;1737908;81;21755;-76
2021/03/18 02:17:27;;;;;;;12.18;4.97;;;;;;;24.97;29.62;157710.22;1737142;81;21796;-76
2021/03/18 02:20:25;;;;;;;12.43;4.62;;;;;;;24.92;29.64;157698.28;1738775;81;21316;-77
2021/03/18 02:23:35;;;;;;;13.08;5.05;;;;;;;24.88;29.72;157687.66;1686840;82;21260;-76
2021/03/18 02:26:27;;;;;;;9.63;5.03;;;;;;;24.95;29.67;157704.91;1661026;85;21257;-76
2021/03/18 02:29:16;;;;;;;15.70;4.45;;;;;;;25.00;29.60;157719.50;1657303;85;21247;-76
2021/03/18 02:31:59;;;;;;;13.35;4.28;;;;;;;25.02;29.52;157724.81;1684652;83;21266;-76
2021/03/18 02:35:21;;;;;;;12.88;4.90;;;;;;;24.97;29.56;157711.58;1704697;84;21282;-76
2021/03/18 02:38:20;;;;;;;12.43;4.00;;;;;;;24.91;29.63;157694.33;1720496;82;21171;-76
2021/03/18 02:41:00;;;;;;;8.68;4.50;;;;;;;24.91;29.52;157695.62;1741012;82;21265;-79
2021/03/18 02:43:35;;;;;;;12.55;4.17;;;;;;;24.88;29.59;157686.34;1748970;82;21312;-78
2021/03/18 02:46:08;;;;;;;12.18;4.55;;;;;;;24.86;29.60;157681.03;1741727;82;21871;-78
2021/03/18 02:48:40;;;;;;;17.02;5.25;;;;;;;24.80;29.59;157666.44;1738229;81;21670;-78
2021/03/18 02:51:18;;;;;;;14.93;4.92;;;;;;;24.77;29.60;157658.47;1731635;83;21343;-78
2021/03/18 02:53:50;;;;;;;11.22;5.08;;;;;;;24.79;29.60;157663.78;1730970;81;21183;-78
2021/03/18 02:56:23;;;;;;;15.10;4.40;;;;;;;24.80;29.58;157666.44;1735934;82;21167;-78
2021/03/18 02:58:55;;;;;;;10.80;4.72;;;;;;;24.79;29.59;157663.78;1724720;82;21337;-78
2021/03/18 03:01:28;;;;;;;7.83;4.35;;;;;;;24.82;29.54;157671.75;1733756;82;21317;-78
2021/03/18 03:04:02;;;;;;;12.25;4.60;;;;;;;24.84;29.47;157675.72;1726257;83;21317;-78
2021/03/18 03:06:34;;;;;;;10.90;4.80;;;;;;;24.81;29.48;157669.09;1720428;83;21383;-78
2021/03/18 03:09:07;;;;;;;14.80;4.70;;;;;;;24.80;29.45;157666.44;1747853;81;21172;-78
2021/03/18 03:11:39;;;;;;;10.90;5.00;;;;;;;24.76;29.44;157654.50;1763792;81;21305;-78
2021/03/18 03:14:12;;;;;;;11.35;4.53;;;;;;;24.74;29.45;157650.53;1723378;82;21317;-78
2021/03/18 03:16:45;;;;;;;11.97;5.72;;;;;;;24.79;29.47;157663.78;1740572;82;21162;-78
2021/03/18 03:19:17;;;;;;;17.05;6.08;;;;;;;24.91;29.29;157695.62;1734089;82;21298;-78
2021/03/18 03:21:49;;;;;;;13.75;6.15;;;;;;;24.99;29.12;157715.55;1744460;81;21315;-78
2021/03/18 03:24:22;;;;;;;18.15;7.17;;;;;;;25.11;29.08;157748.81;1724779;82;21175;-79
2021/03/18 03:26:55;;;;;;;12.93;5.95;;;;;;;25.21;28.98;157773.98;1727641;83;21206;-79
2021/03/18 03:29:27;;;;;;;13.78;5.83;;;;;;;25.23;28.96;157779.30;1708598;83;21222;-79
2021/03/18 03:32:01;;;;;;;15.23;5.70;;;;;;;25.14;28.92;157755.42;1730724;81;21156;-79
2021/03/18 03:34:33;;;;;;;14.90;5.12;;;;;;;25.08;28.90;157739.42;1721652;82;21171;-79
2021/03/18 03:37:07;;;;;;;14.78;4.90;;;;;;;24.86;29.11;157681.03;1742958;81;21170;-76
2021/03/18 03:39:41;;;;;;;15.60;4.70;;;;;;;24.84;28.96;157677.08;1729986;82;21194;-82
2021/03/18 03:42:13;;;;;;;7.70;4.12;;;;;;;24.64;29.06;157622.66;1688648;83;22026;-81
2021/03/18 03:44:45;;;;;;;8.93;4.20;;;;;;;24.45;29.26;157570.91;1719767;81;21763;-82
2021/03/18 03:47:18;;;;;;;15.40;4.85;;;;;;;24.48;29.27;157580.19;1731386;82;21181;-83
2021/03/18 03:49:50;;;;;;;10.30;4.72;;;;;;;24.44;29.22;157568.20;1734729;83;21240;-81
2021/03/18 03:52:51;;;;;;;15.23;4.47;;;;;;;24.42;29.33;157564.23;1730778;81;21234;-83
2021/03/18 03:55:43;;;;;;;12.03;4.80;;;;;;;24.31;29.36;157535.06;1749602;81;21251;-82
2021/03/18 03:58:23;;;;;;;11.45;4.28;;;;;;;24.32;29.37;157537.72;1724012;82;21702;-82
2021/03/18 04:00:57;;;;;;;8.53;4.23;;;;;;;24.45;29.29;157572.27;1713758;81;21345;-84
2021/03/18 04:03:29;;;;;;;11.12;3.92;;;;;;;24.52;29.15;157590.81;1710523;83;21528;-84
2021/03/18 04:06:03;;;;;;;10.40;4.20;;;;;;;24.39;29.23;157556.27;1720765;83;21234;-84
2021/03/18 04:08:36;;;;;;;10.18;5.03;;;;;;;24.38;29.21;157552.31;1708303;83;21317;-84
2021/03/18 04:11:08;;;;;;;9.00;4.12;;;;;;;24.40;29.22;157558.92;1704112;83;21341;-84
2021/03/18 04:13:42;;;;;;;11.65;4.90;;;;;;;24.34;29.31;157543.03;1700232;84;21314;-83
2021/03/18 04:16:14;;;;;;;10.75;4.72;;;;;;;24.32;29.30;157537.72;1704147;84;21742;-81
2021/03/18 04:18:47;;;;;;;14.85;4.28;;;;;;;24.36;29.19;157546.98;1717939;82;21397;-81
2021/03/18 04:21:20;;;;;;;13.13;4.53;;;;;;;24.32;29.24;157536.36;1701155;83;21336;-81
2021/03/18 04:23:53;;;;;;;10.68;4.50;;;;;;;24.18;29.32;157500.56;1661852;84;21193;-82
2021/03/18 04:26:26;;;;;;;9.38;3.85;;;;;;;24.27;29.28;157523.13;1647003;86;21190;-83
2021/03/18 04:29:01;;;;;;;9.78;3.90;;;;;;;24.23;29.33;157512.50;1676689;84;21194;-83
2021/03/18 04:31:38;;;;;;;9.98;4.10;;;;;;;24.17;29.41;157496.61;1690126;83;21311;-80
2021/03/18 04:34:12;;;;;;;9.68;4.47;;;;;;;24.10;29.45;157479.36;1691185;84;21281;-81
2021/03/18 04:36:45;;;;;;;13.10;4.95;;;;;;;24.10;29.52;157479.36;1678134;83;21368;-80
2021/03/18 04:39:17;;;;;;;10.65;4.40;;;;;;;24.29;29.44;157529.75;1647907;84;21256;-77
2021/03/18 04:41:50;;;;;;;11.35;4.47;;;;;;;24.46;29.37;157573.56;1650238;84;21728;-88
2021/03/18 04:44:23;;;;;;;12.25;4.45;;;;;;;24.61;29.25;157613.38;1646110;84;21253;-76
2021/03/18 04:46:56;;;;;;;14.05;4.20;;;;;;;24.65;29.04;157626.63;1645808;84;21205;-79
2021/03/18 04:49:29;;;;;;;10.93;4.90;;;;;;;24.55;29.23;157597.44;1645451;84;21340;-81
2021/03/18 04:52:01;;;;;;;8.33;4.30;;;;;;;24.62;29.14;157616.03;1628735;84;21787;-78
2021/03/18 04:54:34;;;;;;;11.97;4.22;;;;;;;24.62;29.03;157617.34;1660670;83;21665;-80
2021/03/18 04:57:08;;;;;;;14.70;4.85;;;;;;;24.57;29.10;157602.75;1632495;85;21724;-85
2021/03/18 04:59:42;;;;;;;12.60;5.15;;;;;;;24.57;29.12;157602.75;1637835;85;21745;-82
2021/03/18 05:02:15;;;;;;;11.83;4.28;;;;;;;24.50;29.18;157584.19;1645718;84;21760;-82
2021/03/18 05:04:48;;;;;;;19.52;4.00;;;;;;;24.50;29.18;157584.19;1636940;85;21345;-82
2021/03/18 05:07:21;;;;;;;14.98;4.47;;;;;;;24.59;29.24;157608.06;1662129;84;21718;-79
2021/03/18 05:09:54;;;;;;;11.12;4.08;;;;;;;24.65;29.20;157624.02;1713288;81;21238;-79
2021/03/18 05:12:27;;;;;;;11.18;3.80;;;;;;;24.66;29.09;157629.28;1696077;82;21404;-81
2021/03/18 05:15:01;;;;;;;8.68;3.77;;;;;;;24.64;29.12;157621.36;1679068;83;21200;-84
2021/03/18 05:17:36;;;;;;;11.15;3.95;;;;;;;24.62;28.97;157617.34;1666921;83;21256;-84
2021/03/18 05:20:11;;;;;;;7.08;3.62;;;;;;;24.55;29.07;157597.44;1656084;85;21210;-82
2021/03/18 05:22:47;;;;;;;11.38;3.77;;;;;;;24.57;28.97;157602.75;1675004;84;21242;-81
2021/03/18 05:25:23;;;;;;;14.00;4.10;;;;;;;24.52;29.04;157589.52;1697521;82;21348;-83
2021/03/18 05:27:56;;;;;;;9.78;4.08;;;;;;;24.56;29.05;157601.44;1680413;83;21247;-83
2021/03/18 05:30:30;;;;;;;11.43;4.40;;;;;;;24.65;28.99;157624.02;1661012;84;21791;-82
2021/03/18 05:33:03;;;;;;;9.78;4.05;;;;;;;24.69;28.99;157637.25;1661083;84;21192;-81
2021/03/18 05:35:42;;;;;;;9.93;4.25;;;;;;;24.69;28.92;157637.25;1664494;83;21179;-84
2021/03/18 05:38:16;;;;;;;12.28;4.30;;;;;;;24.76;28.86;157655.86;1663295;83;21366;-82
2021/03/18 05:40:55;;;;;;;10.35;4.05;;;;;;;24.76;28.82;157655.86;1663017;83;21713;-85
2021/03/18 05:43:34;;;;;;;10.05;4.90;;;;;;;24.69;28.84;157635.94;1665573;83;21216;-86
2021/03/18 05:46:15;;;;;;;10.98;4.78;;;;;;;24.64;28.99;157621.36;1676396;83;21341;-82
2021/03/18 05:48:52;;;;;;;15.48;6.10;;;;;;;24.54;28.98;157594.78;1668469;83;21382;-86
2021/03/18 05:51:25;;;;;;;16.23;4.95;;;;;;;24.60;29.09;157610.72;1670818;83;21350;-79
2021/03/18 05:54:00;;;;;;;11.53;4.50;;;;;;;24.65;29.17;157625.31;1665903;83;21358;-85
2021/03/18 05:56:33;;;;;;;9.40;4.08;;;;;;;24.77;29.23;157657.16;1671992;83;21816;-79
2021/03/18 05:59:05;;;;;;;14.13;4.75;;;;;;;24.81;29.23;157669.09;1680247;85;21867;-77
2021/03/18 06:01:38;;;;;;;10.08;5.58;;;;;;;24.92;29.29;157696.98;1679608;83;21249;-79
2021/03/18 06:04:11;;;;;;;9.95;4.30;;;;;;;24.96;29.35;157707.56;1637576;86;22165;-77
2021/03/18 06:06:45;;;;;;;11.68;4.25;;;;;;;24.95;29.48;157706.27;1652527;86;21245;-76
2021/03/18 06:09:17;;;;;;;8.13;3.95;;;;;;;25.04;29.60;157730.14;1649960;87;21361;-76
2021/03/18 06:11:49;;;;;;;9.18;4.83;;;;;;;25.16;29.57;157760.75;1659827;86;21261;-76
2021/03/18 06:14:21;;;;;;;12.35;4.50;;;;;;;25.18;29.72;157767.36;1650437;87;21408;-76
2021/03/18 06:16:55;;;;;;;8.30;4.33;;;;;;;25.24;29.73;157783.27;1660127;85;21190;-76
2021/03/18 06:19:27;;;;;;;10.88;4.22;;;;;;;25.29;29.70;157796.56;1633903;87;21829;-76
2021/03/18 06:22:00;;;;;;;9.65;4.17;;;;;;;25.32;29.62;157804.55;1660000;86;21881;-76
2021/03/18 06:24:33;;;;;;;9.00;4.28;;;;;;;25.39;29.54;157823.11;1650245;87;21210;-77
2021/03/18 06:27:06;;;;;;;8.98;4.40;;;;;;;25.45;29.60;157839.06;1659997;86;21182;-76
2021/03/18 06:29:39;;;;;;;13.28;4.87;;;;;;;25.58;29.72;157872.23;1650272;87;21373;-76
2021/03/18 06:32:19;;;;;;;9.23;4.60;;;;;;;25.62;29.65;157884.17;1660014;86;21343;-76
2021/03/18 06:34:56;;;;;;;7.72;4.55;;;;;;;25.66;29.67;157896.13;1650635;87;21864;-76
2021/03/18 06:37:36;;;;;;;11.15;4.60;;;;;;;25.78;29.64;157926.73;1660244;86;21897;-79
2021/03/18 06:40:19;;;;;;;7.83;4.67;;;;;;;25.81;29.52;157934.66;1650255;86;21349;-79
2021/03/18 06:43:01;;;;;;;13.95;4.65;;;;;;;25.73;29.49;157914.75;1658209;86;21379;-79
2021/03/18 06:45:40;;;;;;;9.30;4.08;;;;;;;25.70;29.61;157905.41;1650377;87;21267;-79
2021/03/18 06:48:15;;;;;;;9.88;4.03;;;;;;;25.76;29.57;157922.67;1660029;86;21371;-79
2021/03/18 06:50:48;;;;;;;9.03;4.90;;;;;;;25.88;29.56;157953.28;1633333;88;21265;-76
2021/03/18 06:53:32;;;;;;;13.18;5.00;;;;;;;25.89;29.60;157957.25;1650353;87;21380;-76
2021/03/18 06:56:03;;;;;;;9.95;5.33;;;;;;;25.91;29.52;157962.58;1647875;86;21359;-76
2021/03/18 06:58:36;;;;;;;15.05;5.08;;;;;;;25.91;29.61;157961.28;1650417;87;21726;-77
2021/03/18 07:01:08;;;;;;;9.15;4.87;;;;;;;26.29;29.25;158062.19;1660131;85;21383;-76
2021/03/18 07:03:41;;;;;;;10.90;4.97;;;;;;;26.34;29.24;158075.48;1651681;86;21845;-79
2021/03/18 07:06:27;;;;;;;9.93;4.75;;;;;;;26.40;29.25;158092.77;1658740;86;21917;-76
2021/03/18 07:09:11;;;;;;;11.05;4.80;;;;;;;26.42;29.25;158098.14;1655915;86;21211;-77
2021/03/18 07:11:52;;;;;;;12.58;5.53;;;;;;;26.57;29.08;158139.31;1658220;86;21377;-77
2021/03/18 07:14:20;;;;;;;13.88;6.72;;;;;;;26.77;29.05;158192.47;1639985;86;21783;-77
2021/03/18 07:16:52;;;;;;;16.07;5.53;;;;;;;26.99;29.09;158249.63;1600412;86;21216;-77
2021/03/18 07:19:26;;;;;;;11.15;5.22;;;;;;;27.25;29.01;158318.81;1658688;86;21366;-77
2021/03/18 07:21:59;;;;;;;15.78;5.85;;;;;;;27.54;28.74;158398.56;1668163;86;21719;-76
2021/03/18 07:24:36;;;;;;;10.58;5.40;;;;;;;27.74;28.55;158451.80;1658606;86;21354;-77
2021/03/18 07:27:12;;;;;;;12.33;5.97;;;;;;;27.50;28.73;158387.91;1658811;86;21850;-77
2021/03/18 07:29:48;;;;;;;15.58;5.20;;;;;;;27.63;28.55;158421.19;1658477;86;21346;-77
2021/03/18 07:32:20;;;;;;;11.85;5.62;;;;;;;27.74;28.38;158450.50;1658682;86;21409;-77
2021/03/18 07:34:54;;;;;;;13.15;5.45;;;;;;;27.50;28.47;158387.91;1658568;86;21216;-77
2021/03/18 07:37:26;;;;;;;13.93;5.80;;;;;;;27.63;28.61;158421.19;1658772;86;21724;-77
2021/03/18 07:40:01;;;;;;;18.45;6.33;;;;;;;27.98;28.49;158514.34;1658653;86;21838;-77
2021/03/18 07:42:33;;;;;;;12.63;6.87;;;;;;;28.21;28.13;158576.84;1640407;86;21342;-77
2021/03/18 07:45:06;;;;;;;16.12;5.53;;;;;;;28.33;28.15;158608.83;1658661;85;21381;-77
2021/03/18 07:47:40;;;;;;;9.23;4.70;;;;;;;28.47;27.62;158647.39;1658727;86;21373;-77
2021/03/18 07:50:15;;;;;;;16.30;4.87;;;;;;;28.61;27.56;158683.36;1658632;86;21188;-77
2021/03/18 07:52:48;;;;;;;18.82;5.30;;;;;;;28.83;27.47;158741.97;1658751;86;21853;-77
2021/03/18 07:55:21;;;;;;;16.02;5.55;;;;;;;28.98;27.27;158783.22;1658584;86;21342;-77
2021/03/18 07:57:53;;;;;;;14.83;4.87;;;;;;;29.23;26.85;158849.80;1658556;86;21219;-77
2021/03/18 08:00:26;;;;;;;11.15;5.67;;;;;;;29.07;27.01;158805.86;1659004;86;21268;-77
2021/03/18 08:03:27;;;;;;;9.38;4.60;;;;;;;29.07;26.95;158805.86;1658786;86;21338;-77
2021/03/18 08:06:01;;;;;;;15.05;6.00;;;;;;;28.96;26.76;158777.89;1604539;88;21448;-77
2021/03/18 08:08:37;;;;;;;16.82;5.50;;;;;;;28.47;27.05;158647.39;1686507;84;21673;-77
2021/03/18 08:11:22;;;;;;;14.05;5.42;;;;;;;28.15;27.17;158559.53;1711925;84;21723;-77
2021/03/18 08:13:49;;;;;;;12.53;6.78;;;;;;;28.19;27.28;158570.20;1708485;84;21742;-77
2021/03/18 08:16:32;;;;;;;19.07;7.08;;;;;;;28.17;27.67;158564.87;1698687;84;21246;-77
2021/03/18 08:19:12;;;;;;;17.90;8.05;;;;;;;28.11;28.09;158548.94;1704528;84;21249;-77
2021/03/18 08:21:46;;;;;;;17.12;7.62;;;;;;;27.91;28.08;158495.69;1692886;84;21182;-77
2021/03/18 08:24:27;;;;;;;18.57;7.17;;;;;;;27.51;28.43;158390.58;1697128;84;21812;-77
2021/03/18 08:27:06;;;;;;;19.55;8.58;;;;;;;27.51;28.53;158390.58;1701639;84;21351;-77
2021/03/18 08:29:46;;;;;;;21.45;10.48;;;;;;;27.38;28.50;158353.34;1699093;84;21396;-77
2021/03/18 08:32:29;;;;;;;15.03;8.38;;;;;;;27.08;28.76;158273.59;1703979;84;21356;-76
2021/03/18 08:35:06;;;;;;;18.20;8.13;;;;;;;26.94;29.20;158237.67;1693157;84;21325;-77
2021/03/18 08:37:44;;;;;;;17.65;7.78;;;;;;;26.92;29.05;158232.34;1696498;84;21859;-77
2021/03/18 08:40:27;;;;;;;15.35;8.20;;;;;;;26.85;28.95;158212.41;1711836;84;21720;-76
2021/03/18 08:43:11;;;;;;;18.70;7.58;;;;;;;26.93;28.76;158235.00;1711636;84;21191;-77
2021/03/18 08:45:41;;;;;;;20.72;9.70;;;;;;;26.90;28.98;158227.02;1692419;85;21201;-77
2021/03/18 08:48:16;;;;;;;20.02;7.92;;;;;;;26.84;29.09;158209.73;1709941;84;21332;-76
2021/03/18 08:50:50;;;;;;;17.98;8.50;;;;;;;26.94;28.99;158237.67;1711981;84;21396;-76
2021/03/18 08:53:34;;;;;;;25.88;8.60;;;;;;;26.86;28.90;158215.06;1702423;84;21349;-76
2021/03/18 08:56:07;;;;;;;18.10;7.42;;;;;;;26.79;28.80;158196.47;1707117;84;21190;-77
2021/03/18 08:58:47;;;;;;;23.02;8.55;;;;;;;26.66;28.96;158161.92;1686643;84;21325;-76
2021/03/18 09:01:20;;;;;;;21.50;7.30;;;;;;;26.64;28.95;158157.91;1711924;84;21209;-77
2021/03/18 09:03:56;;;;;;;21.85;7.42;;;;;;;26.73;28.73;158181.86;1711878;84;21720;-79
2021/03/18 09:06:32;;;;;;;17.62;6.95;;;;;;;26.78;28.73;158193.81;1701905;84;21354;-79
2021/03/18 09:09:05;;;;;;;23.83;6.97;;;;;;;26.82;28.80;158204.41;1673705;86;21205;-76
2021/03/18 09:11:38;;;;;;;20.37;7.22;;;;;;;26.90;28.69;158225.72;1669759;86;21219;-77
2021/03/18 09:14:18;;;;;;;17.05;7.10;;;;;;;26.98;28.70;158248.27;1623252;87;21213;-76
2021/03/18 09:16:50;;;;;;;14.38;7.05;;;;;;;27.23;28.54;158314.78;1658032;86;21346;-77
2021/03/18 09:19:23;;;;;;;18.02;7.72;;;;;;;27.48;28.50;158382.64;1658783;86;21220;-78
2021/03/18 09:21:55;;;;;;;17.15;6.92;;;;;;;27.56;28.00;158402.53;1640013;86;21354;-76
2021/03/18 09:24:41;;;;;;;17.15;6.45;;;;;;;27.60;28.05;158414.50;1658633;86;21373;-77
2021/03/18 09:27:15;;;;;;;17.62;7.30;;;;;;;27.52;28.20;158393.23;1696987;84;21321;-77
2021/03/18 09:29:48;;;;;;;16.48;6.37;;;;;;;27.65;27.91;158426.56;1710225;84;21324;-78
2021/03/18 09:32:23;;;;;;;12.20;5.78;;;;;;;27.68;27.66;158435.86;1710086;84;21194;-77
2021/03/18 09:34:54;;;;;;;15.50;6.17;;;;;;;27.63;28.00;158421.19;1675840;85;21758;-77
2021/03/18 09:37:36;;;;;;;10.45;4.87;;;;;;;27.61;28.14;158415.86;1656970;86;21211;-77
2021/03/18 09:40:10;;;;;;;12.78;5.12;;;;;;;27.66;27.96;158429.22;1658748;86;21358;-77
2021/03/18 09:42:43;;;;;;;18.05;5.10;;;;;;;27.78;27.87;158462.45;1658769;86;21195;-77
2021/03/18 09:45:19;;;;;;;16.45;5.85;;;;;;;27.89;27.63;158490.41;1658612;85;21365;-78
2021/03/18 09:47:52;;;;;;;18.02;6.90;;;;;;;27.96;27.61;158509.00;1658653;86;21216;-78
2021/03/18 09:50:28;;;;;;;20.25;6.87;;;;;;;28.21;27.28;158575.53;1658625;86;21357;-78
2021/03/18 09:53:10;;;;;;;13.50;6.35;;;;;;;28.61;26.91;158683.36;1658612;86;21350;-78
2021/03/18 09:55:42;;;;;;;18.57;6.25;;;;;;;28.70;26.98;158707.31;1658684;86;21248;-78
2021/03/18 09:58:16;;;;;;;15.93;6.05;;;;;;;28.89;26.93;158757.92;1658551;86;21358;-77
2021/03/18 10:00:49;;;;;;;12.30;5.25;;;;;;;29.08;26.45;158809.84;1658536;86;21252;-78
2021/03/18 10:03:22;;;;;;;8.45;4.33;;;;;;;29.41;26.25;158897.77;1658656;86;21350;-78
2021/03/18 10:05:57;;;;;;;11.40;4.53;;;;;;;29.09;26.11;158811.20;1658549;86;21192;-77
2021/03/18 10:08:30;;;;;;;8.95;4.15;;;;;;;29.22;26.43;158847.13;1635082;86;21223;-78
2021/03/18 10:11:14;;;;;;;7.05;4.53;;;;;;;29.20;26.04;158841.80;1650966;86;21834;-78
2021/03/18 10:13:47;;;;;;;10.80;4.78;;;;;;;28.85;26.23;158747.31;1650648;87;21758;-78
2021/03/18 10:16:19;;;;;;;13.15;4.87;;;;;;;28.45;26.71;158642.13;1650561;87;21358;-78
2021/03/18 10:18:51;;;;;;;5.75;3.58;;;;;;;28.37;26.67;158618.12;1631989;87;21216;-78
2021/03/18 10:21:24;;;;;;;8.33;3.98;;;;;;;28.31;26.61;158602.19;1650536;87;21394;-78
2021/03/18 10:23:58;;;;;;;9.78;4.78;;;;;;;28.32;26.49;158606.16;1650712;87;21723;-78
2021/03/18 10:26:30;;;;;;;13.45;4.42;;;;;;;28.33;26.57;158608.83;1650551;87;21224;-78
2021/03/18 10:29:04;;;;;;;6.00;3.67;;;;;;;28.35;26.53;158612.84;1650490;87;21751;-78
2021/03/18 10:31:38;;;;;;;8.03;4.12;;;;;;;28.20;26.50;158572.86;1650465;87;21362;-78
2021/03/18 10:34:24;;;;;;;13.45;4.10;;;;;;;28.11;26.33;158550.23;1650425;87;21228;-78
2021/03/18 10:36:57;;;;;;;8.50;3.30;;;;;;;28.05;26.56;158534.30;1650540;87;21339;-78
2021/03/18 10:39:32;;;;;;;8.30;3.30;;;;;;;28.03;26.45;158527.61;1650316;87;21370;-78
2021/03/18 10:42:04;;;;;;;10.00;3.83;;;;;;;28.38;26.06;158620.78;1650437;87;21215;-78
2021/03/18 10:44:41;;;;;;;9.33;3.27;;;;;;;28.37;26.19;158618.12;1650528;85;21877;-77
2021/03/18 10:47:22;;;;;;;8.00;3.60;;;;;;;28.55;26.01;158667.36;1650612;87;21358;-78
2021/03/18 10:50:05;;;;;;;8.90;3.10;;;;;;;29.00;25.63;158788.56;1650488;87;21208;-77
2021/03/18 10:52:39;;;;;;;8.15;3.40;;;;;;;28.86;25.71;158751.28;1650705;87;21354;-77
2021/03/18 10:55:12;;;;;;;9.55;3.92;;;;;;;28.86;25.72;158751.28;1650499;87;21280;-77
2021/03/18 10:57:47;;;;;;;13.88;4.58;;;;;;;28.94;26.09;158772.56;1650510;87;21220;-77
2021/03/18 11:00:21;;;;;;;10.88;4.42;;;;;;;29.03;25.91;158796.56;1632708;87;21294;-78
2021/03/18 11:03:04;;;;;;;8.13;4.08;;;;;;;29.01;25.96;158791.22;1650533;87;21727;-78
2021/03/18 11:05:40;;;;;;;12.35;4.42;;;;;;;28.92;25.97;158767.28;1650437;87;21414;-77
2021/03/18 11:08:13;;;;;;;11.57;4.58;;;;;;;28.78;25.70;158728.58;1632379;87;21711;-77
2021/03/18 11:10:49;;;;;;;11.70;4.40;;;;;;;28.59;25.86;158678.03;1657645;86;21283;-78
2021/03/18 11:13:31;;;;;;;9.05;3.27;;;;;;;28.45;26.00;158642.13;1644983;87;21857;-77
2021/03/18 11:16:06;;;;;;;6.03;3.05;;;;;;;28.41;25.98;158630.14;1663481;86;21365;-77
2021/03/18 11:18:44;;;;;;;9.88;3.60;;;;;;;28.28;25.69;158594.19;1658729;85;21212;-77
2021/03/18 11:21:32;;;;;;;9.80;3.75;;;;;;;28.10;25.85;158546.27;1658663;86;21353;-77
2021/03/18 11:24:19;;;;;;;8.15;3.72;;;;;;;27.92;26.10;158498.34;1658587;86;21231;-80
2021/03/18 11:27:01;;;;;;;7.05;4.15;;;;;;;27.91;26.16;158497.05;1658832;86;21878;-78
2021/03/18 11:29:36;;;;;;;6.05;3.17;;;;;;;28.00;26.30;158520.97;1658608;86;21346;-79
2021/03/18 11:32:08;;;;;;;4.83;3.12;;;;;;;28.14;26.25;158556.88;1658591;86;21354;-80
2021/03/18 11:34:41;;;;;;;8.05;2.55;;;;;;;28.20;26.20;158572.86;1658697;86;21406;-77
2021/03/18 11:37:13;;;;;;;6.42;3.27;;;;;;;28.19;26.07;158570.20;1658646;86;21346;-77
2021/03/18 11:39:47;;;;;;;11.22;3.17;;;;;;;28.17;26.00;158564.87;1658670;86;21358;-77
2021/03/18 11:42:19;;;;;;;7.70;3.08;;;;;;;28.08;25.84;158540.94;1658709;86;21224;-77
2021/03/18 11:44:51;;;;;;;8.18;4.08;;;;;;;28.02;26.00;158526.30;1658633;85;21357;-77
2021/03/18 11:47:24;;;;;;;6.55;3.58;;;;;;;28.04;25.97;158530.28;1658751;86;21240;-77
2021/03/18 11:49:56;;;;;;;5.70;3.45;;;;;;;28.12;25.79;158552.91;1658720;86;21216;-76
2021/03/18 11:52:31;;;;;;;5.55;3.05;;;;;;;28.13;25.76;158555.56;1658685;86;21228;-76
2021/03/18 11:55:03;;;;;;;10.85;3.55;;;;;;;28.19;25.85;158570.20;1658571;86;21259;-79
2021/03/18 11:57:35;;;;;;;9.98;3.95;;;;;;;28.15;25.67;158559.53;1658817;86;21727;-79